KPSF/PSF METAR and TAF weather

Enter ICAO airport designator
Station Type Date Time Source
KPSF METAR 2019/08/24 07:54 UTC NOAA

KPSF 240754Z AUTO 00000KT 10SM BKN003 11/09 A3013 RMK AO2 SLP188 T01060089


Station Type Date Time Source
KPSF Decoded METAR 2019/08/24 07:54 UTC NOAA

Station name not available
Aug 24, 2019 - 03:54 AM EDT / 2019.08.24 0754 UTC
Wind: Calm:0
Visibility: 10 mile(s):0
Sky conditions: mostly cloudy
Temperature: 51.1 F (10.6 C)
Dew Point: 48.0 F (8.9 C)
Relative Humidity: 89%
Pressure (altimeter): 30.13 in. Hg (1020 hPa)
ob: KPSF 240754Z AUTO 00000KT 10SM BKN003 11/09 A3013 RMK AO2 SLP188 T01060089
cycle: 8

Station Type Date Time Source
KPSF TAF 2019/08/24 06:42 UTC NOAA

TAF KPSF 240539Z 2406/2506 00000KT P6SM SKC
TEMPO 2407/2411 3SM BR
FM241300 35005KT P6SM SKC
FM241600 01007KT P6SM SCT050
FM250400 07004KT P6SM SCT050

Example: see airport list